createdAt,value
2023-11-30T00:02:33.301Z,7.25
2023-11-30T00:05:36.714Z,8.07
2023-11-30T00:08:40.244Z,7.65
2023-11-30T00:11:43.822Z,9.43
2023-11-30T00:14:49.264Z,6.75
2023-11-30T00:17:52.840Z,10.93
2023-11-30T00:20:56.510Z,10.85
2023-11-30T00:23:59.902Z,6.88
2023-11-30T00:27:03.483Z,6.87
2023-11-30T00:30:10.146Z,7.30
2023-11-30T00:33:13.670Z,8.60
2023-11-30T00:36:17.432Z,8.35
2023-11-30T00:39:21.100Z,8.38
2023-11-30T00:42:26.780Z,9.55
2023-11-30T00:45:32.394Z,8.30
2023-11-30T00:48:36.367Z,11.05
2023-11-30T00:51:40.450Z,10.30
2023-11-30T00:54:44.059Z,8.15
2023-11-30T00:57:47.833Z,8.07
2023-11-30T01:00:52.811Z,9.27
2023-11-30T01:03:56.375Z,7.00
2023-11-30T01:07:00.104Z,8.95
2023-11-30T01:10:04.224Z,8.15
2023-11-30T01:13:22.083Z,7.05
2023-11-30T01:16:25.538Z,7.97
2023-11-30T01:19:29.344Z,7.97
2023-11-30T01:22:32.881Z,8.45
2023-11-30T01:25:36.355Z,7.38
2023-11-30T01:28:42.270Z,12.93
2023-11-30T01:31:45.860Z,9.52
2023-11-30T01:34:49.548Z,9.15
2023-11-30T01:37:53.315Z,7.90
2023-11-30T01:40:57.826Z,10.40
2023-11-30T01:44:03.054Z,8.45
2023-11-30T01:47:13.138Z,8.48
2023-11-30T01:50:17.340Z,9.00
2023-11-30T01:56:25.104Z,7.07
2023-11-30T01:59:30.096Z,7.03
2023-11-30T02:02:34.172Z,8.05
2023-11-30T02:05:38.077Z,8.48
2023-11-30T02:08:41.542Z,8.63
2023-11-30T02:11:45.268Z,8.00
2023-11-30T02:14:50.194Z,7.30
2023-11-30T02:17:53.801Z,6.50
2023-11-30T02:20:57.912Z,8.55
2023-11-30T02:24:03.849Z,8.05
2023-11-30T02:27:12.232Z,9.07
2023-11-30T02:30:32.626Z,8.15
2023-11-30T02:33:36.264Z,6.53
2023-11-30T02:36:39.875Z,7.18
2023-11-30T02:39:43.554Z,7.68
2023-11-30T02:42:47.075Z,9.88
2023-11-30T02:45:52.099Z,8.93
2023-11-30T02:48:55.568Z,6.90
2023-11-30T02:51:59.106Z,7.30
2023-11-30T02:55:02.821Z,5.80
2023-11-30T02:58:06.467Z,7.57
2023-11-30T03:01:11.379Z,6.28
2023-11-30T03:04:15.124Z,5.47
2023-11-30T03:07:18.544Z,6.40
2023-11-30T03:10:24.208Z,6.50
2023-11-30T03:13:28.057Z,7.30
2023-11-30T03:16:33.092Z,5.40
2023-11-30T03:19:36.531Z,7.00
2023-11-30T03:22:40.058Z,6.50
2023-11-30T03:25:43.587Z,6.07
2023-11-30T03:28:47.245Z,7.25
2023-11-30T03:31:52.238Z,6.40
2023-11-30T03:34:55.844Z,6.95
2023-11-30T03:37:59.536Z,10.05
2023-11-30T03:41:03.241Z,6.40
2023-11-30T03:44:07.100Z,7.30
2023-11-30T03:47:15.521Z,6.70
2023-11-30T03:50:19.369Z,8.73
2023-11-30T03:53:23.130Z,8.15
2023-11-30T03:56:26.791Z,7.25
2023-11-30T03:59:30.202Z,5.40
2023-11-30T04:02:35.147Z,6.80
2023-11-30T04:05:38.480Z,6.65
2023-11-30T04:08:41.828Z,5.87
2023-11-30T04:11:45.334Z,5.93
2023-11-30T04:14:48.805Z,5.75
2023-11-30T04:17:53.951Z,7.18
2023-11-30T04:20:57.409Z,6.07
2023-11-30T04:24:00.903Z,5.32
2023-11-30T04:27:04.466Z,7.63
2023-11-30T04:30:09.338Z,6.75
2023-11-30T04:33:14.358Z,6.38
2023-11-30T04:36:17.776Z,8.23
2023-11-30T04:39:22.067Z,6.57
2023-11-30T04:42:25.596Z,7.53
2023-11-30T04:45:29.072Z,5.22
2023-11-30T04:48:34.135Z,5.90
2023-11-30T04:51:38.476Z,6.05
2023-11-30T04:54:42.140Z,9.60
2023-11-30T04:57:45.559Z,6.85
2023-11-30T05:00:49.563Z,6.90
2023-11-30T05:03:54.661Z,6.72
2023-11-30T05:06:58.923Z,6.50
2023-11-30T05:13:06.104Z,7.75
2023-11-30T05:16:10.580Z,6.05
2023-11-30T05:19:15.580Z,6.43
2023-11-30T05:22:18.975Z,6.35
2023-11-30T05:25:22.541Z,5.30
2023-11-30T05:28:26.047Z,5.05
2023-11-30T05:31:29.587Z,4.13
2023-11-30T05:34:34.790Z,5.10
2023-11-30T05:37:38.089Z,6.88
2023-11-30T05:40:41.666Z,4.50
2023-11-30T05:43:45.537Z,5.40
2023-11-30T05:46:50.907Z,7.32
2023-11-30T05:49:56.771Z,4.93
2023-11-30T05:53:19.427Z,5.63
2023-11-30T05:56:22.839Z,6.32
2023-11-30T05:59:27.102Z,4.93
2023-11-30T06:02:30.763Z,5.30
2023-11-30T06:05:34.123Z,8.13
2023-11-30T06:08:39.039Z,7.38
2023-11-30T06:11:42.783Z,5.20
2023-11-30T06:14:46.759Z,6.20
2023-11-30T06:17:50.851Z,4.85
2023-11-30T06:23:59.389Z,5.72
2023-11-30T06:27:03.305Z,4.78
2023-11-30T06:30:08.383Z,4.35
2023-11-30T06:33:11.863Z,6.45
2023-11-30T06:36:15.549Z,4.75
2023-11-30T06:39:20.499Z,4.20
2023-11-30T06:42:24.116Z,5.82
2023-11-30T06:45:27.750Z,5.65
2023-11-30T06:48:31.503Z,3.75
2023-11-30T06:51:35.062Z,4.55
2023-11-30T06:54:39.918Z,5.53
2023-11-30T06:57:43.586Z,5.13
2023-11-30T07:00:47.386Z,7.30
2023-11-30T07:03:51.220Z,7.93
2023-11-30T07:06:54.814Z,5.80
2023-11-30T07:09:59.562Z,4.95
2023-11-30T07:13:03.199Z,5.22
2023-11-30T07:16:08.133Z,5.25
2023-11-30T07:19:11.494Z,3.88
2023-11-30T07:22:16.322Z,4.73
2023-11-30T07:25:21.057Z,4.05
2023-11-30T07:28:24.326Z,4.75
2023-11-30T07:31:27.855Z,6.23
2023-11-30T07:34:31.330Z,6.85
2023-11-30T07:37:34.832Z,5.63
2023-11-30T07:40:39.811Z,4.45
2023-11-30T07:43:43.293Z,4.95
2023-11-30T07:46:46.798Z,7.03
2023-11-30T07:49:51.143Z,4.18
2023-11-30T07:52:54.584Z,6.43
2023-11-30T07:55:59.539Z,5.32
2023-11-30T07:59:03.121Z,6.25
2023-11-30T08:02:12.132Z,5.47
2023-11-30T08:05:17.248Z,4.38
2023-11-30T08:08:20.850Z,7.38
2023-11-30T08:11:26.098Z,4.68
2023-11-30T08:14:29.554Z,4.78
2023-11-30T08:17:33.085Z,5.35
2023-11-30T08:20:37.064Z,3.70
2023-11-30T08:26:47.584Z,3.45
2023-11-30T08:29:51.103Z,6.30
2023-11-30T08:32:54.894Z,2.90
2023-11-30T08:35:58.321Z,3.03
2023-11-30T08:39:04.044Z,3.05
2023-11-30T08:42:15.931Z,3.38
2023-11-30T08:45:19.837Z,4.22
2023-11-30T08:48:23.667Z,5.55
2023-11-30T08:51:27.169Z,2.38
2023-11-30T08:54:31.087Z,3.58
2023-11-30T08:57:36.310Z,2.72
2023-11-30T09:00:41.158Z,4.40
2023-11-30T09:03:46.188Z,2.80
2023-11-30T09:06:49.875Z,3.53
2023-11-30T09:09:53.375Z,2.30
2023-11-30T09:12:58.266Z,1.95
2023-11-30T09:16:01.562Z,2.85
2023-11-30T09:19:06.634Z,3.17
2023-11-30T09:22:16.371Z,2.97
2023-11-30T09:25:42.001Z,2.38
2023-11-30T09:28:45.501Z,4.25
2023-11-30T09:31:49.340Z,3.17
2023-11-30T09:34:54.539Z,3.88
2023-11-30T09:38:00.614Z,3.65
2023-11-30T09:41:08.037Z,2.25
2023-11-30T09:44:11.849Z,5.63
2023-11-30T09:47:16.051Z,2.47
2023-11-30T09:50:19.551Z,2.90
2023-11-30T09:53:23.028Z,4.00
2023-11-30T09:56:29.065Z,5.45
2023-11-30T09:59:32.618Z,4.13
2023-11-30T10:02:36.107Z,2.90
2023-11-30T10:05:39.793Z,5.28
2023-11-30T10:08:43.808Z,4.38
2023-11-30T10:11:48.809Z,3.05
2023-11-30T10:15:01.307Z,2.95
2023-11-30T10:18:06.665Z,3.00
2023-11-30T10:21:10.824Z,3.15
2023-11-30T10:27:22.847Z,3.45
2023-11-30T10:30:28.956Z,4.82
2023-11-30T10:33:38.459Z,7.75
2023-11-30T10:36:44.900Z,2.38
2023-11-30T10:39:54.093Z,2.50
2023-11-30T10:43:05.225Z,3.95
2023-11-30T10:46:10.393Z,2.55
2023-11-30T10:49:14.331Z,4.25
2023-11-30T10:52:19.309Z,3.95
2023-11-30T10:55:24.797Z,3.33
2023-11-30T10:58:30.041Z,2.65
2023-11-30T11:01:37.444Z,5.63
2023-11-30T11:04:43.095Z,2.88
2023-11-30T11:07:47.544Z,5.20
2023-11-30T11:10:51.745Z,3.78
2023-11-30T11:13:56.835Z,3.45
2023-11-30T11:17:13.551Z,3.08
2023-11-30T11:20:25.738Z,3.50
2023-11-30T11:23:36.481Z,2.92
2023-11-30T11:26:45.051Z,4.55
2023-11-30T11:29:50.365Z,2.72
2023-11-30T11:32:58.679Z,5.60
2023-11-30T11:36:03.563Z,4.45
2023-11-30T11:39:07.677Z,6.05
2023-11-30T11:42:18.450Z,3.83
2023-11-30T11:45:23.850Z,4.57
2023-11-30T11:48:27.505Z,3.75
2023-11-30T11:51:31.336Z,3.42
2023-11-30T11:54:35.045Z,3.97
2023-11-30T11:57:40.197Z,3.65
2023-11-30T12:00:55.552Z,4.20
2023-11-30T12:04:00.915Z,4.30
2023-11-30T12:07:16.017Z,4.72
2023-11-30T12:10:33.786Z,5.13
2023-11-30T12:13:39.220Z,4.00
2023-11-30T12:16:44.521Z,5.20
2023-11-30T12:20:11.350Z,5.60
2023-11-30T12:23:14.836Z,3.63
2023-11-30T12:26:18.464Z,4.40
2023-11-30T12:29:22.445Z,3.60
2023-11-30T12:32:26.331Z,7.03
2023-11-30T12:35:31.569Z,4.50
2023-11-30T12:38:35.289Z,3.80
2023-11-30T12:41:39.099Z,6.15
2023-11-30T12:44:43.135Z,2.95
2023-11-30T12:50:52.859Z,3.63
2023-11-30T12:53:56.472Z,4.47
2023-11-30T12:57:00.246Z,5.15
2023-11-30T13:00:10.580Z,4.47
2023-11-30T13:03:14.594Z,3.80
2023-11-30T13:06:20.423Z,5.07
2023-11-30T13:09:24.369Z,5.00
2023-11-30T13:12:28.128Z,4.30
2023-11-30T13:15:31.688Z,3.75
2023-11-30T13:18:35.815Z,4.38
2023-11-30T13:21:41.385Z,6.18
2023-11-30T13:24:45.005Z,4.78
2023-11-30T13:27:48.952Z,4.70
2023-11-30T13:33:56.060Z,4.20
2023-11-30T13:37:01.821Z,4.85
2023-11-30T13:40:08.100Z,5.22
2023-11-30T13:43:12.088Z,5.97
2023-11-30T13:46:15.818Z,6.30
2023-11-30T13:49:21.250Z,5.10
2023-11-30T13:52:26.494Z,5.88
2023-11-30T13:55:30.921Z,3.28
2023-11-30T13:58:34.579Z,6.93
2023-11-30T14:01:38.185Z,7.78
2023-11-30T14:07:17.971Z,4.32
2023-11-30T14:10:21.583Z,5.50
2023-11-30T14:13:25.080Z,3.83
2023-11-30T14:16:28.856Z,4.78
2023-11-30T14:19:34.585Z,5.75
2023-11-30T14:22:42.549Z,5.13
2023-11-30T14:25:46.430Z,5.53
2023-11-30T14:28:50.099Z,3.83
2023-11-30T14:31:53.676Z,4.72
2023-11-30T14:34:57.475Z,5.50
2023-11-30T14:38:02.375Z,5.70
2023-11-30T14:41:06.646Z,7.15
2023-11-30T14:44:11.602Z,4.68
2023-11-30T14:47:15.291Z,6.70
2023-11-30T14:50:19.057Z,6.25
2023-11-30T14:53:24.344Z,6.63
2023-11-30T14:56:28.054Z,5.65
2023-11-30T14:59:32.625Z,6.80
2023-11-30T15:02:36.579Z,5.00
2023-11-30T15:05:40.399Z,6.93
2023-11-30T15:08:45.941Z,5.82
2023-11-30T15:11:49.547Z,5.32
2023-11-30T15:14:53.168Z,5.60
2023-11-30T15:17:56.868Z,5.88
2023-11-30T15:21:00.348Z,5.60
2023-11-30T15:24:05.819Z,4.80
2023-11-30T15:27:09.858Z,5.22
2023-11-30T15:30:15.138Z,6.38
2023-11-30T15:33:19.115Z,4.90
2023-11-30T15:36:23.106Z,4.32
2023-11-30T15:42:53.483Z,7.00
2023-11-30T15:45:57.160Z,6.45
2023-11-30T15:49:00.641Z,3.17
2023-11-30T15:52:04.846Z,5.05
2023-11-30T15:55:11.979Z,4.18
2023-11-30T15:58:17.043Z,5.25
2023-11-30T16:01:45.122Z,5.22
2023-11-30T16:04:48.625Z,6.05
2023-11-30T16:07:52.566Z,5.32
2023-11-30T16:10:56.309Z,4.72
2023-11-30T16:13:59.830Z,4.00
2023-11-30T16:17:05.290Z,4.82
2023-11-30T16:20:12.503Z,8.02
2023-11-30T16:23:16.374Z,4.22
2023-11-30T16:26:20.872Z,6.93
2023-11-30T16:29:24.773Z,3.50
2023-11-30T16:32:29.680Z,5.30
2023-11-30T16:35:33.298Z,3.35
2023-11-30T16:38:36.813Z,5.82
2023-11-30T16:41:40.550Z,6.07
2023-11-30T16:44:44.283Z,3.92
2023-11-30T16:47:49.516Z,4.00
2023-11-30T16:50:53.087Z,5.03
2023-11-30T16:53:56.801Z,3.85
2023-11-30T16:57:20.090Z,6.45
2023-11-30T17:00:23.888Z,5.20
2023-11-30T17:03:27.835Z,6.13
2023-11-30T17:06:31.611Z,4.07
2023-11-30T17:09:35.314Z,3.97
2023-11-30T17:12:40.322Z,4.22
2023-11-30T17:15:43.872Z,4.40
2023-11-30T17:18:47.629Z,5.68
2023-11-30T17:21:53.510Z,4.50
2023-11-30T17:24:57.645Z,4.53
2023-11-30T17:31:06.796Z,6.93
2023-11-30T17:34:10.614Z,4.75
2023-11-30T17:40:20.119Z,5.70
2023-11-30T17:43:25.078Z,4.82
2023-11-30T17:46:28.651Z,5.45
2023-11-30T17:49:34.199Z,7.78
2023-11-30T17:52:37.807Z,6.60
2023-11-30T17:55:41.320Z,8.80
2023-11-30T17:59:09.300Z,5.95
2023-11-30T18:02:14.895Z,7.50
2023-11-30T18:05:18.894Z,6.72
2023-11-30T18:11:26.627Z,5.85
2023-11-30T18:14:33.724Z,5.57
2023-11-30T18:17:37.133Z,7.53
2023-11-30T18:20:40.883Z,6.63
2023-11-30T18:23:44.622Z,5.60
2023-11-30T18:26:48.652Z,6.25
2023-11-30T18:36:00.336Z,4.18
2023-11-30T18:39:04.348Z,6.03
2023-11-30T18:42:08.174Z,8.88
2023-11-30T18:45:13.797Z,6.53
2023-11-30T18:48:17.539Z,6.18
2023-11-30T18:51:21.916Z,5.63
2023-11-30T18:54:26.155Z,5.47
2023-11-30T19:00:34.341Z,5.10
2023-11-30T19:03:37.964Z,5.43
2023-11-30T19:06:41.622Z,6.05
2023-11-30T19:09:46.128Z,6.18
2023-11-30T19:15:54.647Z,5.57
2023-11-30T19:18:58.438Z,5.78
2023-11-30T19:22:02.369Z,7.90
2023-11-30T19:28:10.302Z,4.57
2023-11-30T19:31:15.388Z,5.10
2023-11-30T19:34:19.046Z,6.68
2023-11-30T19:37:23.295Z,5.07
2023-11-30T19:40:26.819Z,6.25
2023-11-30T19:43:30.541Z,5.32
2023-11-30T19:46:35.614Z,5.95
2023-11-30T19:49:39.070Z,7.43
2023-11-30T19:52:42.594Z,12.23
2023-11-30T19:55:47.771Z,11.95
2023-11-30T19:58:51.337Z,13.75
2023-11-30T20:01:58.378Z,11.57
2023-11-30T20:05:02.483Z,17.60
2023-11-30T20:11:10.491Z,15.75
2023-11-30T20:14:14.630Z,14.75
2023-11-30T20:17:19.537Z,15.93
2023-11-30T20:20:23.351Z,12.52
2023-11-30T20:23:26.825Z,12.07
2023-11-30T20:26:30.632Z,10.15
2023-11-30T20:29:34.386Z,10.13
2023-11-30T20:32:39.370Z,11.05
2023-11-30T20:35:43.093Z,10.75
2023-11-30T20:38:46.728Z,11.48
2023-11-30T20:41:50.137Z,17.50
2023-11-30T20:44:53.910Z,18.13
2023-11-30T20:51:02.595Z,10.68
2023-11-30T20:57:14.340Z,9.45
2023-11-30T21:00:18.587Z,12.77
2023-11-30T21:03:23.934Z,9.77
2023-11-30T21:06:27.564Z,10.27
2023-11-30T21:09:32.737Z,9.90
2023-11-30T21:12:36.586Z,9.70
2023-11-30T21:15:40.358Z,7.82
2023-11-30T21:19:06.958Z,10.73
2023-11-30T21:22:16.178Z,10.73
2023-11-30T21:25:19.706Z,8.32
2023-11-30T21:28:23.072Z,9.38
2023-11-30T21:31:26.819Z,11.38
2023-11-30T21:37:35.493Z,11.45
2023-11-30T21:40:40.106Z,8.13
2023-11-30T21:43:43.971Z,13.35
2023-11-30T21:49:52.464Z,8.50
2023-11-30T21:52:58.652Z,11.82
2023-11-30T21:56:02.263Z,11.82
2023-11-30T21:59:05.958Z,11.38
2023-11-30T22:02:16.531Z,14.50
2023-11-30T22:05:27.137Z,13.70
2023-11-30T22:08:37.084Z,14.05
2023-11-30T22:11:45.059Z,12.80
2023-11-30T22:14:48.570Z,15.57
2023-11-30T22:17:52.191Z,14.32
2023-11-30T22:20:57.221Z,14.80
2023-11-30T22:24:01.460Z,15.02
2023-11-30T22:27:08.058Z,13.20
2023-11-30T22:30:14.636Z,14.63
2023-11-30T22:33:18.316Z,15.38
2023-11-30T22:36:23.155Z,11.68
2023-11-30T22:39:26.848Z,12.30
2023-11-30T22:42:33.089Z,8.80
2023-11-30T22:45:36.627Z,13.38
2023-11-30T22:48:40.152Z,12.82
2023-11-30T22:51:45.422Z,8.60
2023-11-30T22:54:49.192Z,9.70
2023-11-30T22:57:53.325Z,8.98
2023-11-30T23:00:57.509Z,8.82
2023-11-30T23:04:02.338Z,10.85
2023-11-30T23:07:13.244Z,10.32
2023-11-30T23:10:18.591Z,11.68
2023-11-30T23:13:22.815Z,11.57
2023-11-30T23:19:32.687Z,10.50
2023-11-30T23:22:38.089Z,10.73
2023-11-30T23:25:41.816Z,10.73
2023-11-30T23:28:45.597Z,9.32
2023-11-30T23:34:52.866Z,10.60
2023-11-30T23:41:01.503Z,9.07
2023-11-30T23:44:05.065Z,8.38
2023-11-30T23:47:15.299Z,8.30
2023-11-30T23:50:18.798Z,10.27
2023-11-30T23:53:23.710Z,9.50
2023-11-30T23:56:27.205Z,11.05
2023-11-30T23:59:31.130Z,10.75
